Hissar Airport


Codes: VIHR/HSS
Name: Hissar Airport
City:
Country: India
Elevation: 700 ft.

Photos at Hissar Airport


   Photos courtesy of SpottingLog. You can add your own sightings and photos by signing up for a free trial today.



No photos found.

Weather at Hissar Airport


Time (UTC)DescriptionTempratureWindCloud coverageVisibilityPressureHumidity
16-Jun-2024 03:00Clear Sky36°C13 mph, W0%10000m1000hPa24%
16-Jun-2024 06:00Clear Sky41°C13 mph, W0%10000m1000hPa20%
16-Jun-2024 09:00Clear Sky46°C13 mph, W0%10000m997hPa12%
16-Jun-2024 12:00Clear Sky46°C16 mph, W0%10000m995hPa11%
16-Jun-2024 15:00Clear Sky42°C13 mph, W0%10000m996hPa15%
16-Jun-2024 18:00Clear Sky40°C18 mph, W0%10000m997hPa21%
16-Jun-2024 21:00Clear Sky38°C18 mph, W1%10000m997hPa26%
17-Jun-2024 00:00Clear Sky36°C16 mph, W2%10000m998hPa29%
17-Jun-2024 03:00Clear Sky39°C20 mph, W6%10000m1001hPa25%
17-Jun-2024 06:00Clear Sky44°C18 mph, W5%10000m1000hPa19%
17-Jun-2024 09:00Clear Sky47°C16 mph, W1%10000m997hPa15%
17-Jun-2024 12:00Clear Sky46°C18 mph, W1%10000m995hPa14%
17-Jun-2024 15:00Clear Sky42°C16 mph, W0%10000m996hPa18%
17-Jun-2024 18:00Clear Sky40°C18 mph, W0%10000m997hPa23%
17-Jun-2024 21:00Clear Sky38°C16 mph, W0%10000m997hPa24%
18-Jun-2024 00:00Clear Sky36°C18 mph, W0%10000m998hPa32%
18-Jun-2024 03:00Clear Sky39°C20 mph, W0%10000m999hPa27%
18-Jun-2024 06:00Clear Sky43°C20 mph, W0%10000m998hPa21%
18-Jun-2024 09:00Clear Sky45°C18 mph, W0%10000m996hPa18%
18-Jun-2024 12:00Clear Sky44°C18 mph, W0%10000m994hPa18%
18-Jun-2024 15:00Clear Sky41°C18 mph, W0%10000m995hPa21%
18-Jun-2024 18:00Clear Sky39°C18 mph, W0%10000m995hPa24%
18-Jun-2024 21:00Clear Sky36°C22 mph, SW0%10000m995hPa31%
19-Jun-2024 00:00Clear Sky34°C20 mph, SW0%10000m996hPa36%
19-Jun-2024 03:00Clear Sky36°C18 mph, W0%10000m998hPa35%
19-Jun-2024 06:00Clear Sky41°C16 mph, W0%10000m997hPa26%
19-Jun-2024 09:00Clear Sky44°C13 mph, W0%10000m994hPa19%
19-Jun-2024 12:00Clear Sky44°C16 mph, W0%10000m992hPa18%
19-Jun-2024 15:00Clear Sky40°C11 mph, W0%10000m993hPa23%
19-Jun-2024 18:00Clear Sky38°C7 mph, W0%10000m994hPa28%
19-Jun-2024 21:00Clear Sky36°C18 mph, SW0%10000m994hPa35%
20-Jun-2024 00:00Clear Sky34°C16 mph, SW0%10000m996hPa41%
20-Jun-2024 03:00Clear Sky37°C18 mph, W0%10000m998hPa39%
20-Jun-2024 06:00Clear Sky40°C13 mph, W0%10000m997hPa31%
20-Jun-2024 09:00Clear Sky44°C11 mph, SW0%10000m994hPa23%
20-Jun-2024 12:00Clear Sky44°C16 mph, SW0%10000m992hPa21%
20-Jun-2024 15:00Few Clouds40°C7 mph, W14%10000m994hPa25%
20-Jun-2024 18:00Light Rain35°C9 mph, N25%10000m997hPa34%
20-Jun-2024 21:00Light Rain34°C9 mph, NW4%10000m996hPa35%
21-Jun-2024 00:00Clear Sky33°C4 mph, N2%10000m997hPa41%